createdAt,value
2022-09-15T00:00:28.343Z,93.64
2022-09-15T00:01:00.904Z,93.69
2022-09-15T00:01:32.978Z,93.93
2022-09-15T00:02:04.680Z,93.89
2022-09-15T00:02:36.378Z,93.77
2022-09-15T00:03:07.969Z,93.70
2022-09-15T00:03:40.337Z,93.92
2022-09-15T00:04:12.098Z,94.10
2022-09-15T00:04:43.608Z,94.18
2022-09-15T00:05:15.305Z,94.29
2022-09-15T00:05:47.911Z,94.13
2022-09-15T00:06:20.187Z,94.12
2022-09-15T00:06:53.074Z,94.03
2022-09-15T00:07:24.585Z,94.03
2022-09-15T00:07:56.098Z,94.07
2022-09-15T00:08:27.666Z,94.06
2022-09-15T00:08:59.373Z,94.07
2022-09-15T00:09:31.164Z,94.30
2022-09-15T00:10:05.301Z,94.29
2022-09-15T00:10:36.896Z,94.22
2022-09-15T00:11:17.308Z,94.18
2022-09-15T00:11:48.827Z,94.09
2022-09-15T00:12:20.421Z,93.89
2022-09-15T00:12:51.967Z,94.14
2022-09-15T00:13:23.698Z,94.30
2022-09-15T00:13:56.794Z,94.22
2022-09-15T00:14:28.319Z,94.29
2022-09-15T00:15:00.018Z,94.10
2022-09-15T00:15:31.540Z,94.16
2022-09-15T00:16:04.115Z,94.20
2022-09-15T00:16:35.740Z,94.18
2022-09-15T00:17:07.345Z,94.08
2022-09-15T00:17:38.929Z,94.07
2022-09-15T00:18:10.877Z,94.11
2022-09-15T00:18:43.391Z,94.25
2022-09-15T00:19:15.420Z,94.25
2022-09-15T00:19:47.025Z,94.33
2022-09-15T00:20:20.554Z,94.37
2022-09-15T00:20:52.439Z,94.39
2022-09-15T00:21:27.594Z,94.29
2022-09-15T00:21:59.116Z,94.20
2022-09-15T00:22:30.637Z,94.38
2022-09-15T00:23:02.157Z,94.42
2022-09-15T00:23:34.150Z,94.53
2022-09-15T00:24:06.469Z,94.53
2022-09-15T00:24:38.003Z,94.53
2022-09-15T00:25:09.956Z,94.44
2022-09-15T00:25:45.153Z,94.43
2022-09-15T00:26:20.769Z,94.39
2022-09-15T00:26:52.305Z,94.36
2022-09-15T00:27:23.843Z,94.55
2022-09-15T00:27:55.366Z,94.52
2022-09-15T00:28:26.932Z,94.43
2022-09-15T00:29:00.077Z,94.49
2022-09-15T00:29:31.609Z,94.49
2022-09-15T00:30:04.501Z,94.53
2022-09-15T00:30:47.599Z,94.52
2022-09-15T00:31:22.532Z,94.53
2022-09-15T00:31:54.121Z,94.56
2022-09-15T00:32:25.868Z,94.53
2022-09-15T00:32:57.377Z,94.54
2022-09-15T00:33:28.913Z,94.57
2022-09-15T00:34:05.037Z,94.46
2022-09-15T00:34:36.585Z,94.58
2022-09-15T00:35:08.510Z,94.63
2022-09-15T00:35:41.439Z,94.63
2022-09-15T00:36:14.444Z,94.55
2022-09-15T00:36:46.015Z,94.38
2022-09-15T00:37:18.168Z,94.50
2022-09-15T00:37:49.667Z,94.62
2022-09-15T00:38:21.249Z,94.65
2022-09-15T00:38:52.839Z,94.66
2022-09-15T00:39:24.493Z,94.71
2022-09-15T00:39:56.051Z,94.73
2022-09-15T00:40:27.676Z,94.68
2022-09-15T00:41:00.464Z,94.60
2022-09-15T00:41:32.193Z,94.57
2022-09-15T00:42:04.205Z,94.51
2022-09-15T00:42:35.731Z,94.44
2022-09-15T00:43:10.155Z,94.45
2022-09-15T00:44:04.165Z,94.46
2022-09-15T00:44:35.625Z,94.42
2022-09-15T00:45:14.439Z,94.36
2022-09-15T00:45:46.143Z,94.53
2022-09-15T00:46:23.883Z,94.40
2022-09-15T00:47:17.822Z,94.44
2022-09-15T00:47:49.189Z,94.38
2022-09-15T00:48:21.988Z,94.42
2022-09-15T00:49:26.223Z,94.38
2022-09-15T00:50:03.199Z,94.34
2022-09-15T00:50:36.199Z,94.39
2022-09-15T00:51:09.717Z,94.41
2022-09-15T00:51:45.337Z,94.41
2022-09-15T00:52:51.586Z,94.38
2022-09-15T00:53:24.925Z,94.37
2022-09-15T00:53:57.265Z,94.46
2022-09-15T00:54:49.716Z,94.46
2022-09-15T00:55:28.300Z,94.61
2022-09-15T00:56:02.723Z,94.60
2022-09-15T00:56:36.393Z,94.55
2022-09-15T00:57:12.948Z,94.61
2022-09-15T00:58:11.861Z,94.51
2022-09-15T00:58:48.522Z,94.50
2022-09-15T00:59:24.265Z,94.49
2022-09-15T00:59:57.689Z,94.45
2022-09-15T01:00:29.347Z,94.43
2022-09-15T01:01:03.380Z,94.46
2022-09-15T01:01:35.638Z,94.49
2022-09-15T01:02:21.149Z,94.59
2022-09-15T01:02:53.248Z,94.64
2022-09-15T01:03:26.359Z,94.72
2022-09-15T01:03:58.309Z,94.66
2022-09-15T01:04:30.056Z,94.63
2022-09-15T01:05:05.459Z,94.60
2022-09-15T01:05:42.725Z,94.65
2022-09-15T01:06:21.749Z,94.72
2022-09-15T01:06:58.567Z,94.84
2022-09-15T01:07:39.454Z,94.76
2022-09-15T01:08:20.862Z,94.76
2022-09-15T01:09:01.636Z,94.97
2022-09-15T01:09:49.893Z,95.06
2022-09-15T01:10:47.705Z,94.84
2022-09-15T01:11:19.531Z,94.67
2022-09-15T01:11:51.187Z,94.61
2022-09-15T01:12:25.053Z,94.60
2022-09-15T01:13:02.887Z,94.67
2022-09-15T01:13:34.393Z,94.65
2022-09-15T01:14:05.909Z,94.56
2022-09-15T01:14:37.445Z,94.57
2022-09-15T01:15:09.772Z,94.45
2022-09-15T01:16:03.903Z,94.38
2022-09-15T01:17:08.028Z,94.38
2022-09-15T01:17:51.786Z,94.53
2022-09-15T01:18:53.289Z,94.60
2022-09-15T01:20:16.074Z,94.37
2022-09-15T01:20:57.605Z,94.67
2022-09-15T01:21:29.094Z,94.50
2022-09-15T01:22:03.441Z,94.76
2022-09-15T01:22:49.643Z,94.63
2022-09-15T01:23:21.147Z,94.56
2022-09-15T01:23:58.839Z,94.64
2022-09-15T01:24:51.185Z,94.57
2022-09-15T01:25:28.305Z,94.55
2022-09-15T01:26:14.913Z,94.57
2022-09-15T01:27:37.589Z,94.57
2022-09-15T01:28:39.872Z,94.53
2022-09-15T01:29:29.802Z,94.78
2022-09-15T01:30:23.918Z,94.75
2022-09-15T01:31:10.853Z,94.67
2022-09-15T01:32:10.317Z,94.65
2022-09-15T01:33:05.955Z,94.70
2022-09-15T01:33:42.876Z,94.66
2022-09-15T01:34:18.308Z,94.74
2022-09-15T01:35:02.598Z,94.65
2022-09-15T01:35:52.745Z,94.62
2022-09-15T01:36:50.589Z,94.70
2022-09-15T01:37:29.595Z,94.63
2022-09-15T01:38:39.881Z,94.61
2022-09-15T01:39:16.897Z,94.75
2022-09-15T01:39:52.733Z,94.69
2022-09-15T01:40:28.730Z,94.70
2022-09-15T01:41:06.766Z,94.70
2022-09-15T01:41:52.233Z,94.65
2022-09-15T01:42:25.510Z,94.61
2022-09-15T01:42:59.511Z,94.77
2022-09-15T01:43:34.837Z,94.81
2022-09-15T01:44:13.694Z,94.82
2022-09-15T01:44:51.813Z,94.89
2022-09-15T01:45:31.159Z,94.83
2022-09-15T01:46:03.751Z,94.86
2022-09-15T01:46:40.562Z,94.88
2022-09-15T01:47:16.913Z,94.79
2022-09-15T01:47:52.178Z,94.84
2022-09-15T01:48:27.401Z,94.87
2022-09-15T01:49:02.024Z,94.85
2022-09-15T01:49:51.305Z,94.77
2022-09-15T01:50:28.337Z,94.61
2022-09-15T01:51:02.969Z,94.50
2022-09-15T01:51:36.884Z,94.70
2022-09-15T01:52:08.645Z,94.70
2022-09-15T01:52:44.871Z,94.63
2022-09-15T01:53:20.973Z,94.57
2022-09-15T01:53:54.621Z,94.72
2022-09-15T01:54:32.921Z,94.63
2022-09-15T01:55:12.950Z,94.72
2022-09-15T01:56:08.737Z,94.82
2022-09-15T01:56:41.957Z,94.90
2022-09-15T01:57:13.578Z,94.83
2022-09-15T01:57:45.498Z,94.86
2022-09-15T01:58:17.043Z,94.80
2022-09-15T01:58:51.061Z,94.85
2022-09-15T01:59:22.875Z,94.82
2022-09-15T01:59:56.175Z,94.83
2022-09-15T02:01:32.112Z,94.67
2022-09-15T02:02:42.599Z,94.52
2022-09-15T02:03:32.104Z,94.52
2022-09-15T02:04:12.814Z,94.34
2022-09-15T02:04:59.515Z,94.81
2022-09-15T02:05:36.960Z,94.80
2022-09-15T02:06:16.927Z,94.66
2022-09-15T02:06:58.458Z,94.78
2022-09-15T02:07:51.957Z,94.81
2022-09-15T02:08:31.552Z,94.86
2022-09-15T02:09:28.090Z,94.85
2022-09-15T02:10:11.502Z,94.87
2022-09-15T02:10:48.852Z,94.82
2022-09-15T02:11:26.551Z,94.72
2022-09-15T02:12:11.026Z,94.63
2022-09-15T02:12:50.657Z,94.71
2022-09-15T02:13:39.160Z,94.61
2022-09-15T02:14:17.376Z,94.56
2022-09-15T02:15:03.467Z,94.67
2022-09-15T02:15:48.117Z,94.65
2022-09-15T02:16:22.951Z,94.63
2022-09-15T02:16:54.723Z,94.59
2022-09-15T02:17:29.202Z,94.57
2022-09-15T02:18:05.850Z,94.61
2022-09-15T02:19:08.857Z,94.62
2022-09-15T02:19:47.503Z,94.63
2022-09-15T02:20:33.079Z,94.50
2022-09-15T02:21:10.922Z,94.62
2022-09-15T02:21:54.865Z,94.72
2022-09-15T02:22:31.479Z,94.59
2022-09-15T02:23:16.081Z,94.61
2022-09-15T02:23:51.222Z,94.61
2022-09-15T02:24:28.821Z,94.58
2022-09-15T02:25:05.763Z,94.53
2022-09-15T02:25:51.598Z,94.64
2022-09-15T02:26:27.788Z,94.56
2022-09-15T02:27:01.781Z,94.52
2022-09-15T02:27:38.919Z,94.44
2022-09-15T02:28:12.977Z,94.50
2022-09-15T02:28:47.093Z,94.64
2022-09-15T02:29:20.783Z,94.63
2022-09-15T02:29:56.603Z,94.57
2022-09-15T02:30:29.521Z,94.54
2022-09-15T02:31:03.837Z,94.55
2022-09-15T02:31:40.591Z,94.56
2022-09-15T02:32:13.822Z,94.55
2022-09-15T02:32:54.410Z,94.48
2022-09-15T02:33:31.183Z,94.38
2022-09-15T02:34:09.159Z,94.31
2022-09-15T02:34:47.303Z,94.09
2022-09-15T02:35:19.341Z,94.30
2022-09-15T02:35:52.673Z,94.23
2022-09-15T02:36:26.783Z,94.33
2022-09-15T02:36:59.158Z,94.41
2022-09-15T02:37:31.052Z,94.31
2022-09-15T02:38:06.502Z,94.29
2022-09-15T02:38:44.003Z,94.48
2022-09-15T02:39:19.499Z,94.44
2022-09-15T02:39:58.072Z,94.41
2022-09-15T02:40:30.466Z,94.39
2022-09-15T02:41:02.894Z,94.29
2022-09-15T02:41:37.272Z,94.41
2022-09-15T02:42:10.355Z,94.34
2022-09-15T02:42:53.392Z,94.35
2022-09-15T02:43:24.909Z,94.27
2022-09-15T02:43:56.510Z,94.34
2022-09-15T02:44:30.645Z,94.20
2022-09-15T02:45:02.658Z,94.34
2022-09-15T02:45:34.303Z,94.35
2022-09-15T02:46:06.087Z,94.39
2022-09-15T02:46:39.160Z,94.40
2022-09-15T02:47:10.719Z,94.31
2022-09-15T02:47:42.223Z,94.29
2022-09-15T02:48:13.831Z,94.31
2022-09-15T02:48:45.359Z,94.34
2022-09-15T02:49:17.044Z,94.50
2022-09-15T02:49:48.524Z,94.72
2022-09-15T02:50:20.708Z,94.62
2022-09-15T02:50:52.251Z,94.72
2022-09-15T02:51:23.918Z,94.63
2022-09-15T02:51:55.559Z,94.55
2022-09-15T02:52:27.104Z,94.47
2022-09-15T02:52:58.596Z,94.42
2022-09-15T02:53:30.097Z,94.47
2022-09-15T02:54:01.777Z,94.56
2022-09-15T02:54:33.365Z,94.54
2022-09-15T02:55:05.249Z,94.56
2022-09-15T02:55:36.798Z,94.54
2022-09-15T02:56:08.373Z,94.47
2022-09-15T02:56:39.921Z,94.43
2022-09-15T02:57:11.765Z,94.40
2022-09-15T02:57:43.349Z,94.50
2022-09-15T02:58:14.850Z,94.43
2022-09-15T02:58:46.538Z,94.42
2022-09-15T02:59:18.061Z,94.47
2022-09-15T03:00:08.012Z,94.48
2022-09-15T03:00:39.579Z,94.52
2022-09-15T03:01:15.687Z,94.51
2022-09-15T03:01:47.371Z,94.54
2022-09-15T03:02:20.637Z,94.58
2022-09-15T03:02:54.393Z,94.48
2022-09-15T03:03:25.920Z,94.54
2022-09-15T03:03:58.042Z,94.60
2022-09-15T03:04:29.571Z,94.49
2022-09-15T03:05:01.119Z,94.76
2022-09-15T03:05:32.651Z,94.79
2022-09-15T03:06:21.302Z,94.81
2022-09-15T03:06:52.784Z,94.78
2022-09-15T03:07:24.971Z,94.72
2022-09-15T03:07:57.428Z,94.76
2022-09-15T03:08:28.911Z,94.70
2022-09-15T03:09:03.888Z,94.71
2022-09-15T03:09:35.390Z,94.73
2022-09-15T03:10:08.578Z,94.71
2022-09-15T03:10:40.236Z,94.76
2022-09-15T03:11:12.183Z,94.79
2022-09-15T03:11:43.675Z,94.73
2022-09-15T03:12:15.194Z,94.82
2022-09-15T03:12:49.593Z,94.78
2022-09-15T03:13:21.228Z,94.80
2022-09-15T03:13:57.405Z,94.81
2022-09-15T03:14:29.700Z,94.78
2022-09-15T03:15:01.196Z,94.82
2022-09-15T03:15:33.371Z,94.82
2022-09-15T03:16:13.005Z,94.77
2022-09-15T03:16:44.549Z,94.78
2022-09-15T03:17:16.855Z,94.73
2022-09-15T03:17:49.103Z,94.64
2022-09-15T03:18:20.594Z,94.68
2022-09-15T03:18:54.706Z,94.66
2022-09-15T03:19:26.762Z,94.63
2022-09-15T03:19:58.258Z,94.65
2022-09-15T03:20:30.326Z,94.66
2022-09-15T03:21:02.149Z,94.64
2022-09-15T03:21:33.722Z,94.59
2022-09-15T03:22:05.233Z,94.67
2022-09-15T03:22:36.934Z,94.41
2022-09-15T03:23:08.767Z,93.95
2022-09-15T03:23:41.167Z,94.48
2022-09-15T03:24:15.344Z,94.57
2022-09-15T03:24:46.844Z,94.61
2022-09-15T03:25:18.669Z,94.56
2022-09-15T03:25:50.164Z,94.55
2022-09-15T03:26:21.701Z,94.64
2022-09-15T03:26:53.471Z,94.63
2022-09-15T03:27:25.015Z,94.65
2022-09-15T03:27:56.584Z,94.67
2022-09-15T03:28:28.409Z,94.65
2022-09-15T03:28:59.891Z,94.63
2022-09-15T03:29:31.470Z,94.55
2022-09-15T03:30:05.147Z,94.57
2022-09-15T03:30:36.723Z,94.50
2022-09-15T03:31:09.574Z,94.51
2022-09-15T03:31:41.303Z,94.60
2022-09-15T03:32:12.891Z,94.59
2022-09-15T03:32:44.477Z,94.51
2022-09-15T03:33:15.986Z,94.49
2022-09-15T03:33:47.864Z,94.46
2022-09-15T03:34:19.382Z,94.44
2022-09-15T03:34:52.447Z,94.46
2022-09-15T03:35:26.736Z,94.45
2022-09-15T03:35:58.640Z,94.49
2022-09-15T03:36:30.938Z,94.50
2022-09-15T03:37:02.500Z,94.56
2022-09-15T03:37:34.690Z,94.54
2022-09-15T03:38:06.570Z,94.56
2022-09-15T03:38:38.074Z,94.58
2022-09-15T03:39:11.760Z,94.54
2022-09-15T03:39:43.390Z,94.55
2022-09-15T03:40:15.039Z,94.56
2022-09-15T03:40:58.275Z,94.58
2022-09-15T03:41:29.976Z,94.58
2022-09-15T03:42:01.481Z,94.58
2022-09-15T03:42:33.033Z,94.65
2022-09-15T03:43:04.534Z,94.70
2022-09-15T03:43:36.766Z,94.77
2022-09-15T03:44:08.291Z,94.81
2022-09-15T03:44:39.873Z,94.70
2022-09-15T03:45:11.389Z,94.72
2022-09-15T03:45:42.940Z,94.70
2022-09-15T03:46:14.660Z,94.69
2022-09-15T03:46:46.294Z,94.68
2022-09-15T03:47:17.844Z,94.62
2022-09-15T03:47:49.354Z,94.72
2022-09-15T03:48:21.038Z,94.71
2022-09-15T03:48:52.538Z,94.72
2022-09-15T03:49:25.468Z,94.69
2022-09-15T03:49:56.979Z,94.68
2022-09-15T03:50:28.480Z,94.71
2022-09-15T03:51:00.030Z,94.74
2022-09-15T03:51:31.539Z,94.62
2022-09-15T03:52:03.402Z,94.64
2022-09-15T03:52:34.934Z,94.58
2022-09-15T03:53:06.426Z,94.61
2022-09-15T03:53:39.846Z,94.56
2022-09-15T03:54:11.752Z,94.58
2022-09-15T03:54:43.862Z,94.54
2022-09-15T03:55:15.410Z,94.55
2022-09-15T03:55:48.394Z,94.62
2022-09-15T03:56:26.684Z,94.56
2022-09-15T03:56:58.206Z,94.57
2022-09-15T03:57:29.710Z,94.56
2022-09-15T03:58:01.219Z,94.50
2022-09-15T03:58:32.731Z,94.49
2022-09-15T03:59:06.479Z,94.56
2022-09-15T03:59:38.014Z,94.57
2022-09-15T04:00:10.185Z,94.59
2022-09-15T04:00:41.909Z,94.62
2022-09-15T04:01:13.917Z,94.52
2022-09-15T04:01:46.508Z,94.55
2022-09-15T04:02:19.208Z,94.52
2022-09-15T04:02:50.788Z,94.58
2022-09-15T04:03:23.046Z,94.55
2022-09-15T04:03:55.122Z,94.58
2022-09-15T04:04:26.764Z,94.57
2022-09-15T04:04:58.282Z,94.60
2022-09-15T04:05:29.962Z,94.40
2022-09-15T04:06:01.486Z,94.50
2022-09-15T04:06:33.143Z,94.53
2022-09-15T04:07:04.654Z,94.56
2022-09-15T04:07:36.355Z,94.07
2022-09-15T04:08:12.069Z,94.32
2022-09-15T04:08:44.058Z,94.16
2022-09-15T04:09:15.857Z,94.28
2022-09-15T04:09:47.401Z,94.12
2022-09-15T04:10:18.978Z,94.35
2022-09-15T04:10:50.548Z,94.39
2022-09-15T04:11:22.845Z,94.16
2022-09-15T04:11:54.362Z,94.03
2022-09-15T04:12:25.870Z,94.31
2022-09-15T04:12:57.539Z,94.22
2022-09-15T04:13:29.076Z,93.81
2022-09-15T04:14:00.620Z,93.84
2022-09-15T04:14:32.218Z,93.86
2022-09-15T04:15:04.495Z,93.37
2022-09-15T04:15:36.016Z,93.46
2022-09-15T04:16:10.651Z,93.65
2022-09-15T04:16:42.247Z,93.78
2022-09-15T04:17:15.516Z,93.98
2022-09-15T04:17:47.734Z,93.91
2022-09-15T04:18:19.257Z,93.98
2022-09-15T04:18:52.137Z,93.54
2022-09-15T04:19:23.624Z,93.37
2022-09-15T04:19:55.616Z,93.28
2022-09-15T04:20:27.315Z,93.24
2022-09-15T04:21:05.607Z,93.36
2022-09-15T04:21:37.171Z,93.23
2022-09-15T04:22:08.811Z,93.13
2022-09-15T04:22:40.564Z,93.15
2022-09-15T04:23:12.050Z,93.04
2022-09-15T04:23:44.351Z,93.10
2022-09-15T04:24:15.935Z,92.77
2022-09-15T04:24:50.782Z,92.53
2022-09-15T04:25:22.339Z,92.64
2022-09-15T04:25:58.226Z,92.52
2022-09-15T04:26:31.772Z,92.78
2022-09-15T04:27:03.452Z,92.69
2022-09-15T04:27:36.320Z,92.64
2022-09-15T04:28:07.812Z,92.63
2022-09-15T04:28:40.611Z,92.66
2022-09-15T04:29:15.765Z,92.87
2022-09-15T04:29:51.149Z,92.91
2022-09-15T04:30:23.034Z,92.81
2022-09-15T04:31:03.846Z,92.64
2022-09-15T04:31:35.465Z,92.77
2022-09-15T04:32:07.359Z,92.89
2022-09-15T04:32:38.919Z,92.90
2022-09-15T04:33:10.425Z,92.95
2022-09-15T04:33:43.402Z,92.93
2022-09-15T04:34:14.896Z,93.03
2022-09-15T04:34:46.767Z,92.99
2022-09-15T04:35:18.266Z,93.01
2022-09-15T04:35:49.812Z,92.99
2022-09-15T04:36:24.454Z,92.96
2022-09-15T04:36:55.959Z,93.07
2022-09-15T04:37:27.516Z,93.00
2022-09-15T04:38:00.139Z,93.10
2022-09-15T04:38:31.856Z,93.09
2022-09-15T04:39:06.556Z,93.13
2022-09-15T04:39:38.726Z,93.19
2022-09-15T04:40:11.358Z,93.10
2022-09-15T04:40:43.016Z,92.94
2022-09-15T04:41:15.342Z,93.05
2022-09-15T04:41:46.924Z,93.06
2022-09-15T04:42:20.614Z,93.23
2022-09-15T04:42:52.814Z,93.11
2022-09-15T04:43:25.880Z,93.07
2022-09-15T04:43:57.509Z,93.06
2022-09-15T04:44:29.143Z,93.24
2022-09-15T04:45:00.667Z,93.22
2022-09-15T04:45:33.408Z,93.26
2022-09-15T04:46:05.373Z,93.25
2022-09-15T04:46:37.010Z,93.21
2022-09-15T04:47:08.536Z,93.22
2022-09-15T04:47:40.116Z,93.29
2022-09-15T04:48:11.672Z,93.35
2022-09-15T04:48:44.007Z,93.34
2022-09-15T04:49:15.523Z,93.33
2022-09-15T04:49:47.104Z,93.36
2022-09-15T04:50:19.075Z,93.56
2022-09-15T04:50:51.019Z,93.42
2022-09-15T04:51:23.460Z,93.47
2022-09-15T04:51:55.215Z,93.44
2022-09-15T04:52:26.703Z,93.35
2022-09-15T04:52:58.193Z,93.31
2022-09-15T04:53:30.452Z,93.42
2022-09-15T04:54:02.052Z,93.33
2022-09-15T04:54:34.685Z,93.42
2022-09-15T04:55:06.368Z,93.42
2022-09-15T04:55:38.449Z,93.40
2022-09-15T04:56:13.015Z,93.25
2022-09-15T04:56:45.628Z,93.29
2022-09-15T04:57:17.138Z,93.35
2022-09-15T04:57:48.763Z,93.35
2022-09-15T04:58:20.260Z,93.29
2022-09-15T04:58:56.486Z,93.26
2022-09-15T04:59:31.140Z,93.35
2022-09-15T05:00:06.465Z,93.30
2022-09-15T05:00:43.547Z,93.38
2022-09-15T05:01:17.856Z,93.36
2022-09-15T05:01:49.467Z,93.41
2022-09-15T05:02:21.259Z,93.37
2022-09-15T05:02:53.632Z,93.21
2022-09-15T05:03:25.231Z,93.18
2022-09-15T05:03:57.169Z,93.13
2022-09-15T05:04:28.700Z,93.23
2022-09-15T05:05:00.239Z,93.29
2022-09-15T05:05:34.016Z,93.32
2022-09-15T05:06:07.442Z,93.35
2022-09-15T05:06:39.206Z,93.39
2022-09-15T05:07:10.878Z,93.33
2022-09-15T05:07:42.413Z,93.35
2022-09-15T05:08:13.947Z,93.24
2022-09-15T05:08:49.694Z,93.24
2022-09-15T05:09:21.371Z,93.42
2022-09-15T05:09:53.237Z,93.28
2022-09-15T05:10:24.763Z,93.34
2022-09-15T05:11:04.987Z,93.28
2022-09-15T05:11:36.496Z,93.25
2022-09-15T05:12:08.035Z,93.19
2022-09-15T05:12:39.591Z,93.15
2022-09-15T05:13:11.133Z,93.04
2022-09-15T05:13:43.291Z,93.17
2022-09-15T05:14:14.905Z,93.25
2022-09-15T05:14:46.411Z,93.32
2022-09-15T05:15:18.102Z,93.37
2022-09-15T05:15:49.638Z,93.31
2022-09-15T05:16:23.454Z,93.35
2022-09-15T05:16:55.137Z,93.34
2022-09-15T05:17:26.934Z,93.27
2022-09-15T05:17:58.576Z,93.13
2022-09-15T05:18:30.631Z,92.34
2022-09-15T05:19:04.636Z,92.47
2022-09-15T05:19:36.209Z,92.79
2022-09-15T05:20:08.081Z,92.62
2022-09-15T05:20:39.570Z,92.51
2022-09-15T05:21:13.327Z,91.47
2022-09-15T05:21:44.926Z,91.45
2022-09-15T05:22:16.421Z,91.74
2022-09-15T05:22:47.964Z,91.85
2022-09-15T05:23:19.443Z,91.98
2022-09-15T05:23:52.045Z,92.47
2022-09-15T05:24:23.769Z,92.63
2022-09-15T05:24:55.281Z,91.96
2022-09-15T05:25:26.845Z,91.91
2022-09-15T05:25:59.697Z,91.39
2022-09-15T05:26:31.746Z,92.29
2022-09-15T05:27:03.421Z,92.43
2022-09-15T05:27:34.917Z,92.83
2022-09-15T05:28:06.691Z,92.71
2022-09-15T05:28:38.817Z,92.27
2022-09-15T05:29:10.382Z,92.74
2022-09-15T05:29:41.891Z,92.62
2022-09-15T05:30:36.870Z,92.73
2022-09-15T05:31:17.893Z,93.03
2022-09-15T05:31:49.502Z,92.77
2022-09-15T05:32:21.214Z,92.83
2022-09-15T05:32:53.542Z,92.27
2022-09-15T05:33:25.138Z,92.70
2022-09-15T05:33:57.011Z,92.91
2022-09-15T05:34:28.515Z,93.09
2022-09-15T05:35:00.014Z,92.46
2022-09-15T05:35:31.506Z,92.88
2022-09-15T05:36:03.961Z,92.24
2022-09-15T05:36:35.479Z,92.74
2022-09-15T05:37:07.027Z,92.93
2022-09-15T05:37:38.509Z,92.80
2022-09-15T05:38:10.001Z,92.86
2022-09-15T05:38:41.864Z,92.82
2022-09-15T05:39:13.510Z,92.81
2022-09-15T05:39:45.487Z,93.04
2022-09-15T05:40:17.258Z,93.13
2022-09-15T05:40:49.113Z,93.14
2022-09-15T05:41:21.030Z,93.17
2022-09-15T05:41:52.526Z,93.07
2022-09-15T05:42:24.129Z,93.06
2022-09-15T05:42:55.639Z,93.12
2022-09-15T05:43:30.813Z,92.87
2022-09-15T05:44:02.673Z,93.01
2022-09-15T05:44:34.533Z,92.71
2022-09-15T05:45:06.719Z,92.77
2022-09-15T05:45:38.281Z,92.82
2022-09-15T05:46:10.537Z,92.83
2022-09-15T05:46:42.129Z,92.74
2022-09-15T05:47:13.750Z,92.14
2022-09-15T05:47:45.250Z,92.47
2022-09-15T05:48:16.749Z,92.28
2022-09-15T05:48:48.305Z,92.33
2022-09-15T05:49:19.849Z,92.48
2022-09-15T05:49:51.333Z,92.43
2022-09-15T05:50:23.074Z,92.48
2022-09-15T05:50:55.780Z,92.51
2022-09-15T05:51:27.766Z,92.37
2022-09-15T05:51:59.402Z,92.26
2022-09-15T05:52:30.896Z,92.38
2022-09-15T05:53:02.727Z,92.44
2022-09-15T05:53:35.683Z,92.28
2022-09-15T05:54:07.546Z,92.30
2022-09-15T05:54:39.078Z,92.34
2022-09-15T05:55:10.633Z,92.20
2022-09-15T05:55:42.434Z,92.29
2022-09-15T05:56:15.856Z,91.47
2022-09-15T05:56:50.077Z,92.10
2022-09-15T05:57:21.585Z,92.00
2022-09-15T05:57:53.734Z,91.58
2022-09-15T05:58:26.296Z,91.77
2022-09-15T05:58:57.863Z,92.20
2022-09-15T05:59:29.374Z,92.01
2022-09-15T06:00:01.055Z,91.87
2022-09-15T06:00:33.563Z,91.60
2022-09-15T06:01:07.964Z,91.82
2022-09-15T06:01:39.755Z,91.57
2022-09-15T06:02:11.801Z,91.74
2022-09-15T06:02:43.484Z,91.74
2022-09-15T06:03:16.244Z,91.59
2022-09-15T06:03:48.464Z,91.57
2022-09-15T06:04:19.953Z,91.63
2022-09-15T06:04:51.702Z,91.78
2022-09-15T06:05:23.281Z,91.72
2022-09-15T06:06:02.225Z,91.68
2022-09-15T06:06:33.831Z,91.19
2022-09-15T06:07:05.366Z,91.21
2022-09-15T06:07:36.933Z,91.46
2022-09-15T06:08:08.600Z,91.54
2022-09-15T06:08:47.982Z,91.48
2022-09-15T06:09:19.842Z,91.27
2022-09-15T06:09:51.392Z,91.50
2022-09-15T06:10:24.949Z,90.64
2022-09-15T06:11:04.247Z,90.79
2022-09-15T06:11:35.882Z,90.79
2022-09-15T06:12:07.548Z,90.95
2022-09-15T06:12:39.065Z,91.11
2022-09-15T06:13:10.647Z,90.85
2022-09-15T06:13:42.770Z,90.90
2022-09-15T06:14:14.434Z,90.87
2022-09-15T06:14:50.367Z,90.62
2022-09-15T06:15:22.926Z,90.93
2022-09-15T06:15:54.560Z,90.40
2022-09-15T06:16:26.781Z,90.59
2022-09-15T06:16:58.390Z,90.58
2022-09-15T06:17:32.638Z,90.39
2022-09-15T06:18:04.199Z,90.45
2022-09-15T06:18:37.314Z,90.45
2022-09-15T06:19:08.906Z,90.39
2022-09-15T06:19:40.539Z,90.65
2022-09-15T06:20:12.300Z,90.47
2022-09-15T06:20:43.836Z,89.94
2022-09-15T06:21:20.365Z,90.29
2022-09-15T06:21:52.236Z,90.44
2022-09-15T06:22:24.185Z,90.61
2022-09-15T06:22:56.561Z,90.84
2022-09-15T06:23:28.174Z,90.90
2022-09-15T06:24:01.976Z,90.08
2022-09-15T06:24:33.467Z,89.61
2022-09-15T06:25:05.962Z,89.87
2022-09-15T06:25:37.480Z,88.70
2022-09-15T06:26:14.666Z,89.33
2022-09-15T06:26:46.186Z,88.19
2022-09-15T06:27:17.730Z,88.04
2022-09-15T06:27:50.232Z,88.35
2022-09-15T06:28:21.853Z,89.10
2022-09-15T06:28:55.983Z,89.18
2022-09-15T06:29:28.800Z,89.33
2022-09-15T06:30:00.312Z,89.26
2022-09-15T06:30:31.839Z,89.30
2022-09-15T06:31:03.899Z,89.11
2022-09-15T06:31:35.882Z,89.22
2022-09-15T06:32:07.474Z,89.34
2022-09-15T06:32:39.182Z,89.54
2022-09-15T06:33:10.684Z,89.47
2022-09-15T06:33:44.181Z,89.32
2022-09-15T06:34:15.832Z,89.24
2022-09-15T06:34:47.676Z,89.19
2022-09-15T06:35:19.227Z,89.76
2022-09-15T06:35:50.712Z,90.07
2022-09-15T06:36:24.754Z,88.97
2022-09-15T06:36:56.266Z,89.76
2022-09-15T06:37:27.758Z,89.52
2022-09-15T06:37:59.289Z,88.97
2022-09-15T06:38:31.247Z,89.03
2022-09-15T06:39:03.088Z,88.97
2022-09-15T06:39:35.205Z,89.06
2022-09-15T06:40:07.989Z,89.45
2022-09-15T06:40:39.521Z,89.61
2022-09-15T06:41:12.134Z,89.31
2022-09-15T06:42:01.162Z,89.99
2022-09-15T06:42:34.043Z,87.93
2022-09-15T06:43:05.679Z,88.07
2022-09-15T06:43:37.947Z,88.79
2022-09-15T06:44:10.039Z,88.84
2022-09-15T06:44:41.569Z,88.60
2022-09-15T06:45:13.065Z,89.08
2022-09-15T06:45:44.601Z,89.22
2022-09-15T06:46:21.830Z,89.39
2022-09-15T06:46:53.697Z,89.56
2022-09-15T06:47:25.214Z,89.68
2022-09-15T06:48:20.256Z,89.80
2022-09-15T06:48:48.983Z,90.53
2022-09-15T06:49:21.776Z,89.59
2022-09-15T06:49:54.795Z,88.92
2022-09-15T06:50:26.377Z,88.31
2022-09-15T06:50:58.406Z,90.01
2022-09-15T06:51:35.288Z,90.17
2022-09-15T06:52:06.849Z,90.47
2022-09-15T06:52:38.363Z,90.46
2022-09-15T06:53:10.358Z,90.60
2022-09-15T06:53:41.867Z,89.79
2022-09-15T06:54:15.982Z,89.39
2022-09-15T06:54:47.514Z,89.58
2022-09-15T06:55:19.413Z,89.43
2022-09-15T06:55:50.957Z,89.54
2022-09-15T06:56:23.896Z,89.97
2022-09-15T06:56:55.438Z,90.28
2022-09-15T06:57:26.952Z,89.97
2022-09-15T06:57:58.875Z,90.21
2022-09-15T06:58:31.095Z,89.05
2022-09-15T06:59:03.922Z,89.61
2022-09-15T06:59:35.435Z,89.32
2022-09-15T07:00:07.885Z,90.45
2022-09-15T07:00:39.489Z,90.83
2022-09-15T07:01:13.810Z,90.75
2022-09-15T07:01:45.313Z,90.45
2022-09-15T07:02:16.934Z,90.34
2022-09-15T07:02:51.835Z,90.39
2022-09-15T07:03:23.441Z,90.36
2022-09-15T07:03:56.569Z,91.06
2022-09-15T07:04:28.075Z,90.52
2022-09-15T07:04:59.579Z,91.02
2022-09-15T07:05:31.131Z,90.98
2022-09-15T07:06:04.199Z,89.66
2022-09-15T07:06:37.902Z,88.59
2022-09-15T07:07:09.561Z,88.36
2022-09-15T07:07:41.147Z,88.47
2022-09-15T07:08:12.679Z,89.44
2022-09-15T07:08:45.367Z,89.18
2022-09-15T07:09:17.134Z,89.47
2022-09-15T07:09:49.275Z,90.07
2022-09-15T07:10:20.881Z,89.93
2022-09-15T07:10:52.469Z,88.99
2022-09-15T07:11:24.722Z,88.19
2022-09-15T07:11:56.322Z,86.50
2022-09-15T07:12:27.887Z,85.75
2022-09-15T07:13:01.991Z,85.52
2022-09-15T07:13:33.531Z,84.08
2022-09-15T07:14:05.245Z,83.92
2022-09-15T07:14:36.841Z,84.16
2022-09-15T07:15:09.197Z,82.58
2022-09-15T07:15:40.742Z,81.63
2022-09-15T07:16:13.143Z,79.53
2022-09-15T07:16:44.788Z,79.98
2022-09-15T07:17:16.403Z,78.56
2022-09-15T07:17:47.909Z,78.70
2022-09-15T07:18:21.803Z,79.73
2022-09-15T07:18:56.907Z,79.56
2022-09-15T07:19:28.468Z,80.67
2022-09-15T07:20:01.222Z,80.73
2022-09-15T07:20:33.214Z,81.99
2022-09-15T07:21:11.410Z,81.40
2022-09-15T07:21:42.945Z,82.35
2022-09-15T07:22:14.530Z,83.40